Time;durP1;ratioP1;P1;durP2;ratioP2;P2;SDS_P1;SDS_P2;PMS_P1;PMS_P2;Temp;Humidity;BMP_temperature;BMP_pressure;BME280_temperature;BME280_humidity;BME280_pressure;Samples;Min_cycle;Max_cycle;Signal;HPM_P1;HPM_P2
2023/06/09 00:00:58;;;;;;;1.90;1.80;;;14.40;63.30;13.80;95730.00;;;;5013067;28;20683;-56
2023/06/09 00:03:26;;;;;;;1.20;1.20;;;14.30;63.60;13.70;95733.00;;;;5014233;28;20300;-56
2023/06/09 00:05:53;;;;;;;1.17;1.17;;;14.40;63.80;13.80;95730.00;;;;5014168;28;20337;-57
2023/06/09 00:08:20;;;;;;;1.20;1.20;;;14.20;62.70;13.40;95726.00;;;;5014437;28;20627;-56
2023/06/09 00:10:47;;;;;;;0.77;0.77;;;14.20;63.50;13.40;95728.00;;;;5014095;28;20205;-56
2023/06/09 00:13:15;;;;;;;1.27;1.17;;;14.20;64.70;13.50;95728.00;;;;5014186;28;20196;-56
2023/06/09 00:15:42;;;;;;;1.43;1.43;;;14.20;63.30;13.50;95722.00;;;;5014140;28;20229;-56
2023/06/09 00:18:15;;;;;;;2.13;2.03;;;14.20;71.60;13.40;95722.00;;;;5014304;28;20185;-56
2023/06/09 00:20:42;;;;;;;1.50;1.40;;;14.20;63.60;13.50;95716.00;;;;5014180;28;20189;-56
2023/06/09 00:23:10;;;;;;;1.67;1.37;;;14.20;63.40;13.50;95722.00;;;;5013965;28;20198;-56
2023/06/09 00:25:37;;;;;;;1.20;1.20;;;14.20;63.40;13.40;95719.00;;;;5013789;28;20225;-56
2023/06/09 00:28:04;;;;;;;0.90;0.90;;;14.10;97.20;13.50;95711.00;;;;5014108;28;20182;-60
2023/06/09 00:30:31;;;;;;;1.40;1.30;;;14.20;63.50;13.50;95716.00;;;;5014118;28;20198;-56
2023/06/09 00:32:58;;;;;;;1.20;1.20;;;14.10;63.80;13.60;95717.00;;;;5013840;28;20192;-57
2023/06/09 00:35:27;;;;;;;0.90;0.90;;;;;13.50;95710.00;;;;5013832;28;20224;-56
2023/06/09 00:37:55;;;;;;;1.23;1.23;;;14.20;70.70;13.60;95714.00;;;;5013728;28;20198;-56
2023/06/09 00:40:22;;;;;;;1.37;1.37;;;14.20;70.20;13.50;95717.00;;;;5014208;28;20190;-56
2023/06/09 00:42:49;;;;;;;1.03;1.03;;;14.10;62.70;13.30;95708.00;;;;5014181;28;20197;-57
2023/06/09 00:45:16;;;;;;;0.90;0.90;;;14.10;63.40;13.30;95708.00;;;;5014121;28;20193;-56
2023/06/09 00:47:43;;;;;;;2.53;2.33;;;13.90;63.20;13.20;95715.00;;;;5012360;28;20194;-56
2023/06/09 00:50:12;;;;;;;2.67;1.83;;;13.70;90.00;13.10;95718.00;;;;5013859;28;20201;-56
2023/06/09 00:52:42;;;;;;;1.07;1.07;;;13.80;64.10;13.20;95711.00;;;;5013861;28;20201;-56
2023/06/09 00:55:13;;;;;;;1.20;1.20;;;13.80;64.10;13.10;95702.00;;;;5013391;28;20194;-57
2023/06/09 00:57:41;;;;;;;16.30;2.23;;;13.70;64.40;13.00;95705.00;;;;5013553;28;20182;-56
2023/06/09 01:00:11;;;;;;;1.40;1.40;;;13.60;64.40;13.00;95716.00;;;;5013632;28;20197;-56
2023/06/09 01:02:39;;;;;;;1.13;1.13;;;13.70;66.90;13.00;95710.00;;;;5013794;28;20609;-56
2023/06/09 01:05:08;;;;;;;1.53;1.43;;;13.60;66.80;13.10;95711.00;;;;5013565;28;20189;-56
2023/06/09 01:07:54;;;;;;;1.77;1.67;;;13.70;64.60;13.10;95710.00;;;;5013483;28;20280;-56
2023/06/09 01:10:29;;;;;;;2.20;2.10;;;13.80;66.80;13.10;95704.00;;;;5013717;28;20191;-56
2023/06/09 01:13:12;;;;;;;1.93;1.83;;;13.90;79.40;13.10;95709.00;;;;5013594;28;20177;-57
2023/06/09 01:15:44;;;;;;;1.33;1.30;;;;;13.00;95719.00;;;;5013226;28;20218;-56
2023/06/09 01:18:17;;;;;;;1.53;1.43;;;13.90;64.00;13.10;95715.00;;;;5013430;28;20185;-56
2023/06/09 01:20:57;;;;;;;1.33;1.30;;;13.80;63.50;13.10;95707.00;;;;5013638;28;20206;-56
2023/06/09 01:23:40;;;;;;;3.97;1.33;;;13.70;63.70;13.00;95711.00;;;;5013846;28;20185;-56
2023/06/09 01:26:09;;;;;;;2.07;1.97;;;13.70;64.50;13.10;95696.00;;;;5013409;28;20224;-56
2023/06/09 01:28:38;;;;;;;0.90;0.90;;;13.70;64.80;13.00;95707.00;;;;5013229;28;20208;-56
2023/06/09 01:31:08;;;;;;;1.40;1.40;;;13.70;64.50;12.80;95706.00;;;;5013250;28;20195;-56
2023/06/09 01:33:37;;;;;;;1.53;1.50;;;13.60;65.30;12.90;95710.00;;;;5013731;28;20189;-56
2023/06/09 01:36:06;;;;;;;1.33;1.33;;;13.60;65.20;12.90;95707.00;;;;5012990;28;20217;-56
2023/06/09 01:38:33;;;;;;;10.20;1.73;;;13.60;65.10;13.00;95706.00;;;;5013099;28;20269;-56
2023/06/09 01:41:01;;;;;;;1.53;1.47;;;13.60;64.00;12.90;95697.00;;;;5013092;28;20189;-56
2023/06/09 01:43:29;;;;;;;0.80;0.80;;;13.50;64.00;12.90;95702.00;;;;5013135;28;20289;-56
2023/06/09 01:45:56;;;;;;;1.53;1.43;;;13.60;64.70;12.90;95695.00;;;;5013372;28;20220;-56
2023/06/09 01:48:37;;;;;;;1.73;1.63;;;13.20;67.70;12.50;95691.00;;;;5013224;28;20679;-56
2023/06/09 01:51:12;;;;;;;0.87;0.87;;;13.20;64.00;12.50;95700.00;;;;5013274;28;20590;-56
2023/06/09 01:53:47;;;;;;;1.20;1.20;;;13.20;64.60;12.50;95690.00;;;;5013297;28;20199;-56
2023/06/09 01:56:22;;;;;;;1.17;1.17;;;13.10;65.20;12.50;95689.00;;;;5012794;28;20224;-55
2023/06/09 01:58:56;;;;;;;0.90;0.90;;;13.20;65.40;12.50;95684.00;;;;5013531;28;20182;-56
2023/06/09 02:01:25;;;;;;;1.27;1.27;;;13.20;65.30;12.60;95687.00;;;;5012887;28;20272;-56
2023/06/09 02:03:55;;;;;;;1.67;1.57;;;;;12.60;95688.00;;;;5012368;28;20199;-56
2023/06/09 02:06:23;;;;;;;7.97;1.87;;;;;12.60;95682.00;;;;5013035;28;20218;-56
2023/06/09 02:08:51;;;;;;;1.53;1.47;;;;;12.70;95683.00;;;;5013011;28;20201;-56
2023/06/09 02:11:19;;;;;;;1.40;1.40;;;;;12.60;95679.00;;;;5013296;28;20193;-56
2023/06/09 02:13:54;;;;;;;8.20;1.33;;;;;12.70;95685.00;;;;5016289;28;20196;-56
2023/06/09 02:16:21;;;;;;;0.93;0.93;;;13.30;64.60;12.70;95682.00;;;;5016714;28;20379;-56
2023/06/09 02:18:49;;;;;;;0.80;0.80;;;13.20;70.90;12.70;95681.00;;;;5016527;28;20217;-56
2023/06/09 02:21:16;;;;;;;2.17;1.63;;;13.30;63.90;12.60;95685.00;;;;5016209;28;20276;-56
2023/06/09 02:23:43;;;;;;;1.60;1.50;;;13.20;63.80;12.60;95691.00;;;;5016376;28;20198;-56
2023/06/09 02:26:12;;;;;;;1.50;1.40;;;;;12.40;95686.00;;;;5015906;28;20217;-56
2023/06/09 02:28:39;;;;;;;1.53;1.43;;;12.90;63.50;12.00;95686.00;;;;5016087;28;20228;-56
2023/06/09 02:31:08;;;;;;;1.57;1.47;;;;;11.80;95687.00;;;;5016334;28;20193;-56
2023/06/09 02:33:35;;;;;;;1.00;1.00;;;12.60;65.70;11.90;95695.00;;;;5015986;28;20201;-55
2023/06/09 02:36:03;;;;;;;1.07;1.07;;;12.60;71.90;11.90;95699.00;;;;5016297;28;20229;-56
2023/06/09 02:38:31;;;;;;;1.00;1.00;;;;;12.00;95686.00;;;;5015951;28;20190;-56
2023/06/09 02:40:58;;;;;;;1.63;1.53;;;12.60;66.60;11.90;95696.00;;;;5015831;28;20194;-56
2023/06/09 02:43:25;;;;;;;0.90;0.90;;;12.70;66.50;12.10;95686.00;;;;5015768;28;20197;-56
2023/06/09 02:45:52;;;;;;;1.43;1.33;;;;;12.10;95691.00;;;;5015641;28;20224;-56
2023/06/09 02:48:21;;;;;;;1.30;1.30;;;;;12.10;95681.00;;;;5015668;28;20193;-55
2023/06/09 02:50:48;;;;;;;1.60;1.50;;;;;12.10;95678.00;;;;5015645;28;20239;-56
2023/06/09 02:53:15;;;;;;;1.87;1.77;;;12.80;65.10;12.10;95676.00;;;;5015659;28;20198;-56
2023/06/09 02:55:44;;;;;;;1.13;1.13;;;;;12.20;95685.00;;;;5015379;28;20224;-56
2023/06/09 02:58:14;;;;;;;1.40;1.30;;;;;12.10;95680.00;;;;5015799;28;20561;-56
2023/06/09 03:00:44;;;;;;;1.20;1.20;;;;;12.00;95687.00;;;;5015482;28;20200;-57
2023/06/09 03:03:12;;;;;;;1.13;1.13;;;;;12.00;95681.00;;;;5015743;28;20182;-56
2023/06/09 03:05:43;;;;;;;1.33;1.33;;;;;11.90;95680.00;;;;5015299;28;20217;-56
2023/06/09 03:08:11;;;;;;;1.43;1.10;;;;;11.90;95680.00;;;;5015629;28;20266;-56
2023/06/09 03:10:39;;;;;;;1.00;1.00;;;;;11.90;95678.00;;;;5015245;28;20190;-56
2023/06/09 03:13:06;;;;;;;1.10;1.10;;;;;11.90;95684.00;;;;5015256;28;20264;-56
2023/06/09 03:15:34;;;;;;;1.20;1.20;;;;;12.00;95682.00;;;;5015514;28;20205;-55
2023/06/09 03:18:01;;;;;;;0.90;0.90;;;;;12.10;95693.00;;;;5015306;28;20213;-55
2023/06/09 03:20:29;;;;;;;1.50;1.40;;;;;11.90;95686.00;;;;5015396;28;20201;-55
2023/06/09 03:22:58;;;;;;;1.63;1.53;;;;;11.90;95684.00;;;;5014399;28;20197;-56
2023/06/09 03:25:25;;;;;;;1.87;1.77;;;;;11.80;95684.00;;;;5014783;28;20218;-55
2023/06/09 03:27:54;;;;;;;1.10;1.10;;;;;11.70;95687.00;;;;5015282;28;20178;-55
2023/06/09 03:30:21;;;;;;;1.50;1.43;;;;;11.80;95684.00;;;;5014910;28;20275;-55
2023/06/09 03:32:48;;;;;;;0.97;0.97;;;;;11.90;95678.00;;;;5014836;28;20240;-55
2023/06/09 03:35:16;;;;;;;1.17;1.13;;;;;11.80;95679.00;;;;5015213;28;20197;-55
2023/06/09 03:37:43;;;;;;;0.73;0.73;;;;;11.70;95681.00;;;;5014663;28;20228;-55
2023/06/09 03:40:15;;;;;;;1.17;1.17;;;;;11.70;95681.00;;;;5014736;28;20194;-55
2023/06/09 03:42:42;;;;;;;0.90;0.90;;;;;11.70;95681.00;;;;5014676;28;20272;-55
2023/06/09 03:45:10;;;;;;;0.87;0.87;;;;;11.70;95674.00;;;;5014557;28;20197;-58
2023/06/09 03:47:37;;;;;;;2.17;2.00;;;;;11.70;95688.00;;;;5014641;28;20194;-55
2023/06/09 03:50:06;;;;;;;0.93;0.93;;;;;11.60;95682.00;;;;5014726;28;20197;-55
2023/06/09 03:52:34;;;;;;;1.70;1.63;;;;;11.70;95680.00;;;;5013229;28;20197;-55
2023/06/09 03:55:02;;;;;;;1.63;1.53;;;;;11.60;95683.00;;;;5015090;28;20193;-56
2023/06/09 03:57:31;;;;;;;1.33;1.33;;;;;11.60;95684.00;;;;5014549;28;20221;-55
2023/06/09 03:59:58;;;;;;;1.10;1.10;;;;;11.60;95685.00;;;;5014398;28;20285;-56
2023/06/09 04:02:25;;;;;;;1.37;1.27;;;;;11.70;95697.00;;;;5014474;28;20564;-55
2023/06/09 04:04:53;;;;;;;1.17;1.10;;;;;11.80;95689.00;;;;5014227;28;20288;-55
2023/06/09 04:07:20;;;;;;;1.17;1.17;;;;;11.80;95691.00;;;;5014451;28;20213;-56
2023/06/09 04:09:48;;;;;;;0.80;0.80;;;;;11.90;95687.00;;;;5014354;28;20197;-55
2023/06/09 04:12:15;;;;;;;1.83;1.20;;;;;12.00;95686.00;;;;5014209;28;20268;-55
2023/06/09 04:14:45;;;;;;;1.20;1.20;;;;;12.10;95690.00;;;;5014135;28;20268;-55
2023/06/09 04:17:13;;;;;;;1.27;1.27;;;;;12.10;95688.00;;;;5014945;28;20218;-55
2023/06/09 04:19:40;;;;;;;2.43;2.30;;;;;12.00;95691.00;;;;5013990;28;20200;-55
2023/06/09 04:22:08;;;;;;;1.53;1.47;;;;;12.00;95692.00;;;;5014559;28;20224;-55
2023/06/09 04:24:35;;;;;;;1.07;1.07;;;;;12.00;95688.00;;;;5014183;28;20193;-55
2023/06/09 04:27:03;;;;;;;1.23;1.20;;;;;11.70;95697.00;;;;5013809;28;20275;-55
2023/06/09 04:29:32;;;;;;;1.40;1.33;;;;;11.80;95701.00;;;;5013771;28;20194;-55
2023/06/09 04:32:02;;;;;;;3.40;2.23;;;;;11.90;95693.00;;;;5013735;28;20244;-55
2023/06/09 04:34:38;;;;;;;1.47;1.43;;;;;12.00;95691.00;;;;5013346;28;20587;-54
2023/06/09 04:37:07;;;;;;;1.20;1.20;;;;;12.10;95694.00;;;;5013912;28;20626;-55
2023/06/09 04:39:35;;;;;;;1.07;1.07;;;;;12.10;95699.00;;;;5013928;28;20201;-55
2023/06/09 04:42:03;;;;;;;2.13;2.03;;;;;12.20;95700.00;;;;5013653;28;20560;-55
2023/06/09 04:44:32;;;;;;;1.70;1.60;;;;;12.40;95696.00;;;;5013765;28;20339;-56
2023/06/09 04:47:02;;;;;;;2.13;2.03;;;;;12.50;95693.00;;;;5013496;28;20810;-58
2023/06/09 04:49:31;;;;;;;1.10;1.10;;;;;12.60;95694.00;;;;5013731;28;20247;-56
2023/06/09 04:51:59;;;;;;;1.87;1.37;;;;;12.70;95687.00;;;;5013579;28;20194;-57
2023/06/09 04:54:28;;;;;;;1.17;1.10;;;;;12.80;95691.00;;;;5012157;28;20651;-57
2023/06/09 04:56:57;;;;;;;1.73;1.63;;;;;12.80;95694.00;;;;5013886;28;20249;-55
2023/06/09 04:59:25;;;;;;;1.43;1.33;;;;;12.80;95693.00;;;;5013424;28;20200;-55
2023/06/09 05:01:53;;;;;;;4.60;1.97;;;;;12.90;95696.00;;;;5013441;28;20207;-55
2023/06/09 05:04:22;;;;;;;1.33;1.33;;;;;12.90;95696.00;;;;5013408;28;20200;-56
2023/06/09 05:06:50;;;;;;;1.83;1.73;;;;;12.90;95703.00;;;;5014131;28;20206;-55
2023/06/09 05:09:18;;;;;;;2.13;1.50;;;;;13.00;95706.00;;;;5013760;28;20228;-56
2023/06/09 05:11:45;;;;;;;1.27;1.27;;;;;13.00;95699.00;;;;5014139;28;20197;-55
2023/06/09 05:14:13;;;;;;;1.70;1.60;;;;;13.10;95704.00;;;;5013596;28;20239;-55
2023/06/09 05:16:41;;;;;;;1.13;1.13;;;;;13.10;95704.00;;;;5013367;28;20217;-56
2023/06/09 05:19:09;;;;;;;1.30;1.20;;;;;13.20;95706.00;;;;5012079;28;20200;-55
2023/06/09 05:21:38;;;;;;;1.20;1.20;;;;;13.10;95709.00;;;;5013748;28;20197;-56
2023/06/09 05:24:06;;;;;;;1.30;1.27;;;;;13.10;95709.00;;;;5013556;28;20228;-56
2023/06/09 05:26:34;;;;;;;1.10;1.10;;;;;13.20;95714.00;;;;5011928;28;20700;-56
2023/06/09 05:29:01;;;;;;;1.17;1.17;;;;;13.30;95702.00;;;;5013820;28;20248;-55
2023/06/09 05:31:29;;;;;;;2.57;1.43;;;;;13.30;95714.00;;;;5013341;28;20197;-55
2023/06/09 05:33:57;;;;;;;1.27;1.27;;;;;13.30;95711.00;;;;5013629;28;20199;-56
2023/06/09 05:36:24;;;;;;;1.60;1.50;;;;;13.50;95710.00;;;;5013207;28;20559;-55
2023/06/09 05:38:53;;;;;;;1.87;1.77;;;;;13.60;95715.00;;;;5013162;28;20255;-56
2023/06/09 05:41:20;;;;;;;1.70;1.60;;;;;13.70;95719.00;;;;5013112;28;20193;-55
2023/06/09 05:43:48;;;;;;;2.27;2.07;;;;;13.90;95718.00;;;;5013334;28;20268;-56
2023/06/09 05:46:15;;;;;;;1.13;1.13;;;;;13.90;95718.00;;;;5013088;28;20221;-55
2023/06/09 05:48:43;;;;;;;1.73;1.63;;;;;14.10;95718.00;;;;5016899;28;20193;-55
2023/06/09 05:51:10;;;;;;;1.90;1.73;;;;;14.20;95715.00;;;;5016670;28;20193;-55
2023/06/09 05:53:38;;;;;;;1.53;1.43;;;;;14.40;95721.00;;;;5016701;28;20202;-55
2023/06/09 05:56:07;;;;;;;1.57;1.47;;;;;14.50;95725.00;;;;5016566;28;20225;-55
2023/06/09 05:58:34;;;;;;;1.07;1.07;;;;;14.50;95732.00;;;;5016867;28;20594;-55
2023/06/09 06:01:03;;;;;;;1.87;1.77;;;;;14.50;95728.00;;;;5016507;28;20186;-56
2023/06/09 06:03:32;;;;;;;1.17;1.17;;;;;14.60;95730.00;;;;5016533;28;20606;-55
2023/06/09 06:06:00;;;;;;;2.10;1.50;;;;;14.70;95726.00;;;;5016803;28;20214;-56
2023/06/09 06:08:27;;;;;;;1.83;1.73;;;;;14.60;95725.00;;;;5016486;28;20653;-55
2023/06/09 06:10:55;;;;;;;1.33;1.33;;;;;14.70;95729.00;;;;5016453;28;20216;-55
2023/06/09 06:13:24;;;;;;;1.53;1.43;;;;;14.60;95738.00;;;;5016406;28;20204;-55
2023/06/09 06:15:51;;;;;;;2.30;2.13;;;;;14.80;95738.00;;;;5016260;28;20216;-55
2023/06/09 06:18:19;;;;;;;25.60;1.47;;;;;14.90;95736.00;;;;5016227;28;20213;-55
2023/06/09 06:20:46;;;;;;;8.13;1.90;;;;;15.10;95743.00;;;;5015647;28;20208;-56
2023/06/09 06:23:14;;;;;;;0.97;0.97;;;;;15.20;95741.00;;;;5016210;28;20204;-55
2023/06/09 06:25:41;;;;;;;2.07;1.97;;;;;15.20;95732.00;;;;5016140;28;20228;-55
2023/06/09 06:28:11;;;;;;;2.57;2.17;;;;;15.20;95739.00;;;;5016140;28;20327;-56
2023/06/09 06:30:40;;;;;;;1.17;1.13;;;;;15.30;95740.00;;;;5016050;28;20193;-56
2023/06/09 06:33:07;;;;;;;0.90;0.90;;;;;15.50;95735.00;;;;5015996;28;20197;-55
2023/06/09 06:35:35;;;;;;;1.93;1.83;;;;;15.60;95729.00;;;;5016118;28;20231;-55
2023/06/09 06:38:03;;;;;;;1.60;1.50;;;;;15.90;95733.00;;;;5015806;28;20217;-56
2023/06/09 06:40:30;;;;;;;1.30;1.30;;;;;16.00;95729.00;;;;5015838;28;20185;-55
2023/06/09 06:42:58;;;;;;;2.43;2.13;;;;;16.00;95730.00;;;;5015735;28;20193;-56
2023/06/09 06:45:27;;;;;;;1.00;1.00;;;;;16.20;95732.00;;;;5015702;28;20224;-56
2023/06/09 06:47:55;;;;;;;1.13;1.13;;;;;16.20;95728.00;;;;5015666;28;20190;-55
2023/06/09 06:50:23;;;;;;;0.80;0.80;;;;;16.40;95726.00;;;;5016195;28;20197;-56
2023/06/09 06:52:50;;;;;;;1.33;1.33;;;;;16.40;95730.00;;;;5015656;28;20197;-55
2023/06/09 06:55:18;;;;;;;1.63;1.53;;;;;16.50;95726.00;;;;5015870;28;20220;-55
2023/06/09 06:57:46;;;;;;;1.83;1.73;;;;;16.50;95726.00;;;;5015480;28;20583;-55
2023/06/09 07:00:14;;;;;;;0.97;0.97;;;;;16.50;95735.00;;;;5015407;28;20197;-55
2023/06/09 07:02:43;;;;;;;1.33;1.23;;;;;16.70;95732.00;;;;5015434;28;20219;-55
2023/06/09 07:05:11;;;;;;;0.80;0.80;;;;;16.90;95744.00;;;;5015416;28;20194;-56
2023/06/09 07:07:39;;;;;;;1.30;1.23;;;;;17.00;95746.00;;;;5015307;28;20194;-55
2023/06/09 07:10:08;;;;;;;1.30;1.30;;;;;17.20;95753.00;;;;5015171;28;20197;-55
2023/06/09 07:12:36;;;;;;;2.20;1.30;;;;;17.30;95750.00;;;;5015183;28;20197;-55
2023/06/09 07:15:04;;;;;;;4.63;1.67;;;;;17.40;95745.00;;;;5015091;28;20198;-55
2023/06/09 07:17:32;;;;;;;1.57;1.37;;;;;17.60;95749.00;;;;5015609;28;20221;-57
2023/06/09 07:19:59;;;;;;;0.90;0.90;;;;;17.90;95747.00;;;;5015263;28;20202;-55
2023/06/09 07:22:28;;;;;;;1.10;1.10;;;;;18.20;95748.00;;;;5015044;28;20212;-56
2023/06/09 07:24:56;;;;;;;2.00;1.33;;;;;18.10;95745.00;;;;5014966;28;20259;-56
2023/06/09 07:27:23;;;;;;;1.87;1.77;;;;;18.20;95754.00;;;;5015663;28;20621;-55
2023/06/09 07:29:51;;;;;;;1.07;1.07;;;;;18.20;95753.00;;;;5014878;28;20197;-56
2023/06/09 07:32:19;;;;;;;0.93;0.93;;;;;18.20;95745.00;;;;5014814;28;20269;-56
2023/06/09 07:34:47;;;;;;;0.97;0.97;;;;;18.40;95750.00;;;;5014945;28;20268;-55
2023/06/09 07:37:14;;;;;;;1.47;1.37;;;;;18.60;95747.00;;;;5014707;28;20213;-56
2023/06/09 07:39:43;;;;;;;1.30;1.30;;;;;18.70;95745.00;;;;5014757;28;20202;-56
2023/06/09 07:42:10;;;;;;;1.20;1.20;;;;;18.90;95749.00;;;;5014620;28;20728;-56
2023/06/09 07:44:39;;;;;;;0.90;0.90;;;;;18.90;95752.00;;;;5014802;28;20208;-56
2023/06/09 07:47:08;;;;;;;5.70;1.83;;;;;19.10;95752.00;;;;5014804;28;20229;-55
2023/06/09 07:49:36;;;;;;;1.27;1.27;;;;;19.00;95742.00;;;;5014600;28;20255;-56
2023/06/09 07:52:05;;;;;;;1.63;1.53;;;;;19.20;95741.00;;;;5015079;28;20192;-56
2023/06/09 07:54:32;;;;;;;0.70;0.70;;;;;19.30;95748.00;;;;5014439;28;20247;-56
2023/06/09 07:57:01;;;;;;;2.43;2.00;;;;;19.40;95737.00;;;;5014623;28;20218;-56
2023/06/09 07:59:29;;;;;;;1.77;1.67;;;;;19.50;95740.00;;;;5014237;28;20308;-56
2023/06/09 08:01:57;;;;;;;1.37;1.33;;;;;19.70;95739.00;;;;5014570;28;20647;-55
2023/06/09 08:04:25;;;;;;;1.27;1.17;;;;;19.70;95740.00;;;;5014213;28;20201;-57
2023/06/09 08:06:54;;;;;;;1.50;1.40;;;;;19.90;95737.00;;;;5014203;28;20213;-58
2023/06/09 08:09:21;;;;;;;0.97;0.97;;;;;20.00;95740.00;;;;5013690;28;20190;-57
2023/06/09 08:11:49;;;;;;;5.53;2.07;;;;;20.10;95733.00;;;;5014197;28;20197;-57
2023/06/09 08:14:18;;;;;;;1.38;1.38;;;;;20.20;95733.00;;;;5014963;28;20197;-58
2023/06/09 08:16:46;;;;;;;1.17;1.17;;;;;20.30;95742.00;;;;5014657;28;20216;-57
2023/06/09 08:19:13;;;;;;;0.98;0.98;;;;;20.60;95740.00;;;;5014220;28;20562;-57
2023/06/09 08:21:43;;;;;;;0.80;0.80;;;;;20.80;95731.00;;;;5014877;28;20202;-57
2023/06/09 08:24:11;;;;;;;0.90;0.90;;;;;20.60;95734.00;;;;5014263;28;20209;-57
2023/06/09 08:26:39;;;;;;;0.60;0.60;;;;;21.00;95725.00;;;;5014615;28;20220;-56
2023/06/09 08:29:07;;;;;;;0.80;0.80;;;;;21.10;95725.00;;;;5014049;28;20188;-60
2023/06/09 08:31:37;;;;;;;0.70;0.70;;;;;20.90;95723.00;;;;5013814;28;20235;-60
2023/06/09 08:34:05;;;;;;;1.38;1.33;;;;;21.20;95721.00;;;;5014403;28;20552;-57
2023/06/09 08:36:33;;;;;;;1.45;1.42;;;;;21.20;95716.00;;;;5013675;28;20216;-56
2023/06/09 08:39:01;;;;;;;1.10;1.10;;;;;21.30;95716.00;;;;5013979;28;20261;-57
2023/06/09 08:41:32;;;;;;;1.05;1.05;;;;;21.40;95715.00;;;;5014231;28;20197;-56
2023/06/09 08:43:59;;;;;;;0.70;0.70;;;;;21.60;95721.00;;;;5013651;28;20188;-55
2023/06/09 08:46:29;;;;;;;1.20;0.90;;;;;21.70;95704.00;;;;5013421;28;20217;-56
2023/06/09 08:49:00;;;;;;;0.93;0.93;;;;;21.60;95706.00;;;;5013622;28;20174;-56
2023/06/09 08:51:28;;;;;;;1.20;1.10;;;;;21.90;95716.00;;;;5013572;28;20269;-56
2023/06/09 08:53:56;;;;;;;0.70;0.70;;;;;22.00;95716.00;;;;5013544;28;20205;-55
2023/06/09 08:56:24;;;;;;;2.88;1.75;;;;;22.00;95709.00;;;;5013465;28;20704;-55
2023/06/09 08:58:54;;;;;;;0.90;0.90;;;;;22.00;95708.00;;;;5013440;28;20217;-55
2023/06/09 09:01:21;;;;;;;1.08;1.05;;;;;22.20;95711.00;;;;5013499;28;20201;-55
2023/06/09 09:03:50;;;;;;;0.80;0.80;;;;;22.30;95718.00;;;;5013522;28;20193;-56
2023/06/09 09:06:19;;;;;;;0.57;0.57;;;;;22.40;95708.00;;;;5013346;28;20213;-55
2023/06/09 09:08:47;;;;;;;1.10;1.08;;;;;22.40;95710.00;;;;5013712;28;20540;-54
2023/06/09 09:11:14;;;;;;;1.17;1.17;;;;;22.60;95721.00;;;;5013392;28;20198;-55
2023/06/09 09:13:42;;;;;;;1.35;1.25;;;;;22.70;95716.00;;;;5013904;28;20412;-55
2023/06/09 09:16:14;;;;;;;0.70;0.70;;;;;22.80;95719.00;;;;5013577;28;20225;-55
2023/06/09 09:18:46;;;;;;;0.60;0.60;;;;;22.80;95721.00;;;;5013593;28;20201;-55
2023/06/09 09:21:23;;;;;;;0.90;0.90;;;;;22.70;95715.00;;;;5015101;28;20209;-55
2023/06/09 09:23:57;;;;;;;0.90;0.90;;;;;22.80;95716.00;;;;5017655;28;20185;-55
2023/06/09 09:26:29;;;;;;;1.02;1.02;;;;;22.80;95719.00;;;;5017077;28;20307;-54
2023/06/09 09:28:59;;;;;;;0.98;0.98;;;;;22.80;95718.00;;;;5017470;28;20787;-55
2023/06/09 09:31:33;;;;;;;1.58;0.90;;;;;23.00;95714.00;;;;5017286;28;20182;-55
2023/06/09 09:34:01;;;;;;;0.93;0.93;;;;;23.10;95709.00;;;;5017490;28;20374;-54
2023/06/09 09:36:30;;;;;;;0.90;0.90;;;;;23.10;95702.00;;;;5017220;28;20571;-55
2023/06/09 09:39:02;;;;;;;0.85;0.85;;;;;22.90;95705.00;;;;5017608;28;20231;-55
2023/06/09 09:41:30;;;;;;;0.60;0.60;;;;;23.00;95699.00;;;;5017699;28;20185;-55
2023/06/09 09:43:58;;;;;;;1.05;1.05;;;;;23.30;95695.00;;;;5017021;28;20297;-56
2023/06/09 09:46:25;;;;;;;1.52;1.42;;;;;23.60;95694.00;;;;5017030;28;20758;-55
2023/06/09 09:48:55;;;;;;;1.00;1.00;;;;;23.40;95703.00;;;;5016927;28;20185;-54
2023/06/09 09:51:22;;;;;;;0.75;0.75;;;;;23.40;95693.00;;;;5016838;28;20236;-54
2023/06/09 09:53:51;;;;;;;0.60;0.60;;;;;23.50;95699.00;;;;5016847;28;20242;-56
2023/06/09 09:56:25;;;;;;;0.80;0.80;;;;;23.60;95693.00;;;;5016619;28;20758;-53
2023/06/09 09:58:54;;;;;;;0.80;0.80;;;;;23.80;95694.00;;;;5015919;28;20275;-56
2023/06/09 10:01:24;;;;;;;1.45;1.35;;;;;23.90;95696.00;;;;5016912;28;20564;-56
2023/06/09 10:03:54;;;;;;;1.25;1.20;;;;;23.90;95687.00;;;;5016640;28;20229;-55
2023/06/09 10:06:28;;;;;;;1.00;1.00;;;;;23.90;95689.00;;;;5016642;28;20771;-56
2023/06/09 10:08:58;;;;;;;1.17;1.17;;;;;24.00;95698.00;;;;5016553;28;20176;-55
2023/06/09 10:11:31;;;;;;;0.60;0.60;;;;;24.00;95699.00;;;;5016417;28;20193;-55
2023/06/09 10:14:00;;;;;;;1.20;1.08;;;24.60;28.70;24.00;95700.00;;;;5016693;28;20194;-54
2023/06/09 10:16:28;;;;;;;1.75;1.25;;;24.50;30.30;24.10;95697.00;;;;5016368;28;20236;-54
2023/06/09 10:18:57;;;;;;;1.17;1.17;;;24.50;30.00;24.00;95691.00;;;;5016238;28;20264;-56
2023/06/09 10:21:26;;;;;;;1.30;1.13;;;24.40;30.60;24.20;95694.00;;;;5014986;28;20189;-56
2023/06/09 10:23:55;;;;;;;0.85;0.85;;;24.50;30.60;24.20;95693.00;;;;5016266;28;20748;-55
2023/06/09 10:26:25;;;;;;;2.22;1.27;;;24.70;31.20;24.50;95692.00;;;;5016189;28;20240;-55
2023/06/09 10:28:52;;;;;;;0.98;0.98;;;24.80;33.40;24.40;95689.00;;;;5016324;28;20272;-56
2023/06/09 10:31:22;;;;;;;0.70;0.70;;;24.80;30.50;24.50;95690.00;;;;5014941;28;20194;-56
2023/06/09 10:33:50;;;;;;;0.70;0.70;;;;;24.80;95690.00;;;;5015704;28;20566;-55
2023/06/09 10:36:17;;;;;;;0.98;0.98;;;;;25.00;95685.00;;;;5016004;28;20209;-56
2023/06/09 10:38:47;;;;;;;1.10;1.10;;;25.20;28.80;25.20;95684.00;;;;5016203;28;20583;-59
2023/06/09 10:41:20;;;;;;;0.95;0.95;;;25.50;31.50;25.00;95688.00;;;;5015979;28;20235;-55
2023/06/09 10:44:10;;;;;;;1.33;1.23;;;;;25.40;95685.00;;;;5016024;28;20249;-56
2023/06/09 10:46:43;;;;;;;1.10;0.98;;;25.60;29.80;25.40;95683.00;;;;5015828;28;20688;-56
2023/06/09 10:49:36;;;;;;;0.80;0.80;;;;;25.30;95688.00;;;;5016269;28;20198;-56
2023/06/09 10:52:04;;;;;;;1.38;1.27;;;25.70;26.90;25.10;95677.00;;;;5016329;28;20186;-56
2023/06/09 10:54:32;;;;;;;0.93;0.93;;;25.60;28.30;25.50;95677.00;;;;5015707;28;20201;-55
2023/06/09 10:57:01;;;;;;;0.85;0.85;;;;;25.80;95677.00;;;;5015572;28;20264;-56
2023/06/09 11:00:11;;;;;;;1.70;1.60;;;;;26.10;95675.00;;;;5015529;28;20221;-55
2023/06/09 11:02:38;;;;;;;1.38;1.33;;;26.40;26.70;26.10;95675.00;;;;5015874;28;20186;-55
2023/06/09 11:05:06;;;;;;;0.85;0.85;;;26.40;28.80;26.50;95673.00;;;;5015480;28;20276;-56
2023/06/09 11:07:51;;;;;;;1.02;0.95;;;26.70;28.30;26.20;95669.00;;;;5015483;28;20197;-56
2023/06/09 11:10:37;;;;;;;1.08;1.08;;;26.60;27.00;26.10;95671.00;;;;5015614;28;20637;-55
2023/06/09 11:13:46;;;;;;;1.40;1.30;;;26.50;36.00;26.60;95669.00;;;;5015426;28;20236;-55
2023/06/09 11:16:15;;;;;;;2.55;1.45;;;;;26.60;95663.00;;;;4980272;28;20316;-55
2023/06/09 11:18:42;;;;;;;0.88;0.88;;;26.90;25.80;26.30;95662.00;;;;5015216;28;20217;-56
2023/06/09 11:21:20;;;;;;;3.70;1.30;;;26.60;25.90;26.20;95686.00;;;;5015439;28;20216;-55
2023/06/09 11:24:01;;;;;;;1.20;1.20;;;26.70;29.40;25.60;95679.00;;;;5015455;28;20205;-55
2023/06/09 11:26:29;;;;;;;1.45;1.35;;;;;25.30;95656.00;;;;5015115;28;20228;-56
2023/06/09 11:28:57;;;;;;;0.88;0.88;;;;;25.90;95650.00;;;;5013813;28;20573;-56
2023/06/09 11:31:26;;;;;;;1.45;0.90;;;;;26.30;95645.00;;;;5015009;28;20280;-56
2023/06/09 11:33:55;;;;;;;1.08;1.08;;;;;26.60;95651.00;;;;5015281;28;20236;-55
2023/06/09 11:36:30;;;;;;;0.65;0.65;;;26.70;25.00;26.90;95636.00;;;;5014836;28;20217;-56
2023/06/09 11:39:06;;;;;;;1.05;1.05;;;27.10;26.40;26.80;95638.00;;;;5014838;28;20232;-56
2023/06/09 11:41:34;;;;;;;1.25;1.15;;;;;26.70;95635.00;;;;5015161;28;20185;-56
2023/06/09 11:44:01;;;;;;;0.93;0.93;;;27.00;24.50;26.60;95634.00;;;;5014756;28;20194;-56
2023/06/09 11:46:35;;;;;;;0.80;0.80;;;27.00;24.40;27.00;95636.00;;;;5014438;28;20209;-56
2023/06/09 11:49:06;;;;;;;0.63;0.63;;;;;27.10;95642.00;;;;5015041;28;20184;-56
2023/06/09 11:52:02;;;;;;;1.55;1.45;;;27.40;23.10;27.30;95644.00;;;;5015472;28;20272;-56
2023/06/09 11:54:47;;;;;;;2.22;1.20;;;27.50;24.60;27.40;95642.00;;;;5014860;28;20208;-56
2023/06/09 11:57:16;;;;;;;1.05;1.05;;;27.60;24.00;27.70;95655.00;;;;5014715;28;20227;-55
2023/06/09 11:59:45;;;;;;;1.45;1.08;;;27.80;22.10;27.80;95634.00;;;;5014717;28;20243;-56
2023/06/09 12:02:13;;;;;;;1.20;1.20;;;28.00;35.40;27.50;95631.00;;;;5013236;28;20185;-56